首页
METAR-TAF:

METAR-TAF

机场 :

臺灣桃園國際機場

臺北, 台湾

纬度: 25-05N, 经度: 121-13E, 海拔: 33米

当前天气观测

该预报发布于43分钟前的10:33 UTC
风速3节,风向北转东北
温度 26°C
湿度 84%
气压 1008 hPa
能见度10公里或以上
少量云层高于2000英尺
多云层高于5000英尺
多云层高于8000英尺

METAR: RCTP 211033Z 03003KT 9999 FEW020 BKN050 BKN080 26/23 Q1008 NOSIG RMK R05 A2977

时间: 19:16 (11:16 UTC)

预报

该预报发布于5小时和28分钟前的05:48 UTC
预报有效从21日的 06点(UTC)到 22日的 12点(UTC)
风速10节,风向西南
能见度10公里或以上
少量云层高于1500英尺
多云层高于3200英尺
短暂存在
从 21日的 06点(UTC)到 21日的 10点(UTC)
风速8节,风向北转西北
能見度: 3500
散云层高于500英尺
多云层高于800英尺
少量云层高于1500英尺, 积雨云.
多云层高于3200英尺
阵雨
短暂存在
从 21日的 19点(UTC)到 21日的 23点(UTC)
风速5节,风向西转西北
能見度: 2200
少量云层高于600英尺
少量云层高于1500英尺, 积雨云.
多云层高于1800英尺
多云层高于4000英尺
阵雨
成为
从 21日的 23点(UTC)到 22日的 01点(UTC)
风速5节,风向北转西北
短暂存在
从 22日的 05点(UTC)到 22日的 09点(UTC)
能見度: 4000
少量云层高于800英尺
少量云层高于1500英尺, 积雨云.
多云层高于2200英尺
多云层高于4000英尺
阵雨

TAF: RCTP 210548Z 2106/2212 23010KT 9999 FEW015 BKN032 TEMPO 2106/2110 33008KT 3500 SHRA SCT005 BKN008 FEW015CB BKN032 TEMPO 2119/2123 29005KT 2200 SHRA FEW006 FEW015CB BKN018 BKN040 BECMG 2123/2201 33005KT TEMPO 2205/2209 4000 SHRA FEW008 FEW015CB BKN022 BKN040

超过4000个机场的气象观测和天气预报(METAR&TAF报告)。

可查询的气象台以黄色和红色小点在地图上表示。

将鼠标移到小点上方,可查看气象台名称。

然后点击查看天气观测和预报。

如需切换地图:点击带黑十字的绿色按钮放大地图;点击带横线的绿色按钮缩小地图;或者点击绿色箭头查看邻近地区的地图。


METAR-TAF: